Time;durP1;ratioP1;P1;durP2;ratioP2;P2;SDS_P1;SDS_P2;PMS_P1;PMS_P2;Temp;Humidity;BMP_temperature;BMP_pressure;BME280_temperature;BME280_humidity;BME280_pressure;Samples;Min_cycle;Max_cycle;Signal;HPM_P1;HPM_P2
2022/05/06 00:00:27;;;;;;;42.25;30.98;;;;;;;;;;5053097;28;20712;-61
2022/05/06 00:02:53;;;;;;;46.22;32.08;;;;;;;;;;5053089;28;20221;-61
2022/05/06 00:05:18;;;;;;;47.65;32.70;;;;;;;;;;5051654;28;20575;-61
2022/05/06 00:07:43;;;;;;;46.75;31.75;;;;;;;;;;5053055;28;20231;-61
2022/05/06 00:10:09;;;;;;;47.55;31.45;;;;;;;;;;5052714;28;20207;-61
2022/05/06 00:12:35;;;;;;;49.30;33.30;;;;;;;;;;5052386;28;20225;-61
2022/05/06 00:15:00;;;;;;;51.13;33.70;;;;;;;;;;5053055;28;20298;-61
2022/05/06 00:17:25;;;;;;;50.25;32.65;;;;;;;;;;5052072;28;20264;-61
2022/05/06 00:19:51;;;;;;;54.53;33.38;;;;;;;;;;5052860;28;20705;-61
2022/05/06 00:22:16;;;;;;;45.30;31.30;;;;;;;;;;5052089;28;20277;-61
2022/05/06 00:24:41;;;;;;;46.45;31.95;;;;;;;;;;5042525;28;20203;-61
2022/05/06 00:27:07;;;;;;;45.42;31.23;;;;;;;;;;5051978;28;20210;-61
2022/05/06 00:29:32;;;;;;;52.53;33.20;;;;;;;;;;5052836;28;20207;-61
2022/05/06 00:31:57;;;;;;;45.83;31.45;;;;;;;;;;5017578;28;20583;-61
2022/05/06 00:34:23;;;;;;;45.35;29.85;;;;;;;;;;5034154;28;20248;-61
2022/05/06 00:36:48;;;;;;;45.15;30.38;;;;;;;;;;5052642;28;20210;-61
2022/05/06 00:39:13;;;;;;;46.97;32.10;;;;;;;;;;5051266;28;20266;-61
2022/05/06 00:41:38;;;;;;;44.70;31.30;;;;;;;;;;5052781;28;20203;-61
2022/05/06 00:44:06;;;;;;;46.47;30.75;;;;;;;;;;5052244;28;20254;-61
2022/05/06 00:46:31;;;;;;;45.65;30.95;;;;;;;;;;5051565;28;20206;-61
2022/05/06 00:48:56;;;;;;;47.05;31.70;;;;;;;;;;5052250;28;20215;-61
2022/05/06 00:51:22;;;;;;;46.30;31.52;;;;;;;;;;5052233;28;20206;-61
2022/05/06 00:53:47;;;;;;;48.10;31.15;;;;;;;;;;5051380;28;20629;-61
2022/05/06 00:56:12;;;;;;;45.75;31.73;;;;;;;;;;5051661;28;20227;-61
2022/05/06 00:58:38;;;;;;;51.58;33.00;;;;;;;;;;5034557;28;20210;-61
2022/05/06 01:01:03;;;;;;;48.20;32.13;;;;;;;;;;5050861;28;20674;-61
2022/05/06 01:03:29;;;;;;;45.95;31.73;;;;;;;;;;5052248;28;20730;-61
2022/05/06 01:05:55;;;;;;;48.13;32.13;;;;;;;;;;5052023;28;20203;-60
2022/05/06 01:08:20;;;;;;;44.15;31.58;;;;;;;;;;5051030;28;20264;-61
2022/05/06 01:10:46;;;;;;;49.38;31.00;;;;;;;;;;5052377;28;20776;-61
2022/05/06 01:13:11;;;;;;;45.95;32.08;;;;;;;;;;5051875;28;20288;-61
2022/05/06 01:15:38;;;;;;;46.45;31.00;;;;;;;;;;5051746;28;20233;-61
2022/05/06 01:18:03;;;;;;;46.53;30.27;;;;;;;;;;5031577;28;20322;-62
2022/05/06 01:20:28;;;;;;;46.65;30.05;;;;;;;;;;5024686;28;20757;-61
2022/05/06 01:22:54;;;;;;;50.80;32.10;;;;;;;;;;5017099;28;20212;-61
2022/05/06 01:25:21;;;;;;;50.55;31.98;;;;;;;;;;5029336;28;20211;-61
2022/05/06 01:27:52;;;;;;;48.78;32.03;;;;;;;;;;5017993;28;20211;-61
2022/05/06 01:30:30;;;;;;;47.05;31.67;;;;;;;;;;5023714;28;20216;-61
2022/05/06 01:32:56;;;;;;;51.10;32.58;;;;;;;;;;5022283;28;20204;-61
2022/05/06 01:35:21;;;;;;;51.60;31.65;;;;;;;;;;5021078;28;20215;-61
2022/05/06 01:37:53;;;;;;;47.08;31.08;;;;;;;;;;5025254;28;20222;-61
2022/05/06 01:40:19;;;;;;;48.72;32.03;;;;;;;;;;5025902;28;20219;-61
2022/05/06 01:42:44;;;;;;;53.78;33.05;;;;;;;;;;5026147;28;20211;-61
2022/05/06 01:45:10;;;;;;;52.78;32.10;;;;;;;;;;5021472;28;20310;-61
2022/05/06 01:47:36;;;;;;;54.13;33.03;;;;;;;;;;5020451;28;20709;-61
2022/05/06 01:50:01;;;;;;;49.95;31.55;;;;;;;;;;5001126;28;20235;-62
2022/05/06 01:52:26;;;;;;;53.10;32.63;;;;;;;;;;5006376;28;20222;-62
2022/05/06 01:54:52;;;;;;;51.15;32.25;;;;;;;;;;5008077;28;20216;-61
2022/05/06 01:57:17;;;;;;;54.33;32.58;;;;;;;;;;5035642;28;20251;-61
2022/05/06 01:59:42;;;;;;;52.00;31.70;;;;;;;;;;5026931;28;20314;-62
2022/05/06 02:02:07;;;;;;;50.72;32.35;;;;;;;;;;5025779;28;20573;-61
2022/05/06 02:07:17;;;;;;;51.33;32.22;;;;;;;;;;5036210;28;20737;-61
2022/05/06 02:09:42;;;;;;;50.05;31.25;;;;;;;;;;5020054;28;20232;-61
2022/05/06 02:12:07;;;;;;;48.65;32.20;;;;;;;;;;5017039;28;20398;-61
2022/05/06 02:14:33;;;;;;;50.55;31.35;;;;;;;;;;5020415;28;20709;-61
2022/05/06 02:16:59;;;;;;;47.53;29.80;;;;;;;;;;5026214;28;21044;-61
2022/05/06 02:19:24;;;;;;;47.88;29.63;;;;;;;;;;5028136;28;20223;-61
2022/05/06 02:21:49;;;;;;;51.80;31.88;;;;;;;;;;5025970;28;20215;-61
2022/05/06 02:24:14;;;;;;;48.25;30.25;;;;;;;;;;5025756;28;20215;-61
2022/05/06 02:26:40;;;;;;;50.38;31.52;;;;;;;;;;5025382;28;20578;-61
2022/05/06 02:29:06;;;;;;;49.97;31.00;;;;;;;;;;5027099;28;20558;-61
2022/05/06 02:34:16;;;;;;;48.15;28.73;;;;;;;;;;5019465;28;20625;-61
2022/05/06 02:36:42;;;;;;;47.10;29.92;;;;;;;;;;5019014;28;20638;-61
2022/05/06 02:39:07;;;;;;;46.22;28.92;;;;;;;;;;5026664;28;20248;-61
2022/05/06 02:41:33;;;;;;;52.85;30.77;;;;;;;;;;5025875;28;20224;-61
2022/05/06 02:43:58;;;;;;;46.25;30.38;;;;;;;;;;5027421;28;20667;-61
2022/05/06 02:46:24;;;;;;;46.67;29.73;;;;;;;;;;5023896;28;20220;-61
2022/05/06 02:48:50;;;;;;;48.92;31.15;;;;;;;;;;5028646;28;21067;-61
2022/05/06 02:51:15;;;;;;;49.95;29.92;;;;;;;;;;5025226;28;20222;-61
2022/05/06 02:53:40;;;;;;;44.78;28.13;;;;;;;;;;5019225;28;20219;-61
2022/05/06 02:56:05;;;;;;;45.47;29.67;;;;;;;;;;5016509;28;20220;-61
2022/05/06 02:58:31;;;;;;;48.10;28.65;;;;;;;;;;5019148;28;20282;-61
2022/05/06 03:00:56;;;;;;;48.97;29.75;;;;;;;;;;5023087;28;20236;-61
2022/05/06 03:03:21;;;;;;;50.88;30.58;;;;;;;;;;5024565;28;20609;-60
2022/05/06 03:05:46;;;;;;;45.58;29.10;;;;;;;;;;5025072;28;20319;-61
2022/05/06 03:08:12;;;;;;;45.83;28.45;;;;;;;;;;5025360;28;20298;-61
2022/05/06 03:10:37;;;;;;;44.83;28.13;;;;;;;;;;5025036;28;20674;-61
2022/05/06 03:13:02;;;;;;;47.03;28.55;;;;;;;;;;5025651;28;20220;-61
2022/05/06 03:15:28;;;;;;;50.33;29.70;;;;;;;;;;5021623;28;20220;-61
2022/05/06 03:17:53;;;;;;;46.72;29.00;;;;;;;;;;5021096;28;20200;-61
2022/05/06 03:20:18;;;;;;;43.67;27.27;;;;;;;;;;5016655;28;20662;-61
2022/05/06 03:22:46;;;;;;;47.70;28.52;;;;;;;;;;5020806;28;20238;-61
2022/05/06 03:25:11;;;;;;;48.65;29.52;;;;;;;;;;5028815;28;20223;-61
2022/05/06 03:30:20;;;;;;;47.20;28.88;;;;;;;;;;5024725;28;20231;-61
2022/05/06 03:32:46;;;;;;;47.47;28.40;;;;;;;;;;5025086;28;20216;-61
2022/05/06 03:35:11;;;;;;;46.13;27.90;;;;;;;;;;5022720;28;20311;-61
2022/05/06 03:37:38;;;;;;;45.17;27.70;;;;;;;;;;5005794;28;20646;-61
2022/05/06 03:40:04;;;;;;;46.40;27.48;;;;;;;;;;5017606;28;20323;-61
2022/05/06 03:42:29;;;;;;;44.60;27.60;;;;;;;;;;5016379;28;20293;-61
2022/05/06 03:44:54;;;;;;;44.60;27.40;;;;;;;;;;5017674;28;20533;-61
2022/05/06 03:47:20;;;;;;;48.60;28.80;;;;;;;;;;5024392;28;20280;-61
2022/05/06 03:51:20;;;;;;;43.78;27.80;;;;;;;;;;5026048;28;20215;-61
2022/05/06 03:52:31;;;;;;;46.95;28.83;;;;;;;;;;5024838;28;20737;-61
2022/05/06 03:54:56;;;;;;;45.85;27.10;;;;;;;;;;5024397;28;20314;-61
2022/05/06 03:57:21;;;;;;;44.15;27.40;;;;;;;;;;5032310;28;20709;-61
2022/05/06 03:59:46;;;;;;;47.97;29.33;;;;;;;;;;5025039;28;20235;-61
2022/05/06 04:02:12;;;;;;;42.20;26.92;;;;;;;;;;5015350;28;20219;-61
2022/05/06 04:04:37;;;;;;;42.38;26.92;;;;;;;;;;5014671;28;20219;-61
2022/05/06 04:07:02;;;;;;;47.10;28.60;;;;;;;;;;5016376;28;20302;-61
2022/05/06 04:09:28;;;;;;;46.88;27.90;;;;;;;;;;5023691;28;20215;-61
2022/05/06 04:11:53;;;;;;;46.85;28.15;;;;;;;;;;5024772;28;20221;-61
2022/05/06 04:14:18;;;;;;;47.28;27.92;;;;;;;;;;5023991;28;20246;-61
2022/05/06 04:16:43;;;;;;;42.50;26.10;;;;;;;;;;5024077;28;20215;-62
2022/05/06 04:19:09;;;;;;;42.83;27.08;;;;;;;;;;5025851;28;20246;-61
2022/05/06 04:24:18;;;;;;;38.00;25.50;;;;;;;;;;5020197;28;20273;-61
2022/05/06 04:26:43;;;;;;;38.08;25.27;;;;;;;;;;5014835;28;20216;-61
2022/05/06 04:29:08;;;;;;;42.42;26.95;;;;;;;;;;5017523;28;20610;-61
2022/05/06 04:31:34;;;;;;;39.58;26.77;;;;;;;;;;5021201;28;20217;-62
2022/05/06 04:34:00;;;;;;;38.33;26.02;;;;;;;;;;5023153;28;20729;-61
2022/05/06 04:36:25;;;;;;;36.47;25.77;;;;;;;;;;5022657;28;20505;-61
2022/05/06 04:38:50;;;;;;;35.78;24.30;;;;;;;;;;5023816;28;20215;-61
2022/05/06 04:41:16;;;;;;;34.30;23.90;;;;;;;;;;5024229;28;20256;-61
2022/05/06 04:43:41;;;;;;;29.00;21.83;;;;;;;;;;5024152;28;21105;-61
2022/05/06 04:46:06;;;;;;;32.30;23.80;;;;;;;;;;5020141;28;20302;-61
2022/05/06 04:48:32;;;;;;;30.95;22.85;;;;;;;;;;5016951;28;20305;-61
2022/05/06 04:50:57;;;;;;;29.92;21.92;;;;;;;;;;5017530;28;20212;-62
2022/05/06 04:53:22;;;;;;;28.00;20.63;;;;;;;;;;5017057;28;20215;-63
2022/05/06 04:55:48;;;;;;;25.05;19.65;;;;;;;;;;5022587;28;20693;-62
2022/05/06 04:58:14;;;;;;;25.23;20.63;;;;;;;;;;5024461;28;20424;-62
2022/05/06 05:00:40;;;;;;;19.83;16.92;;;;;;;;;;5023032;28;20234;-60
2022/05/06 05:03:05;;;;;;;20.70;17.67;;;;;;;;;;5022457;28;20674;-62
2022/05/06 05:05:30;;;;;;;22.83;18.38;;;;;;;;;;5022568;28;20977;-62
2022/05/06 05:07:56;;;;;;;20.02;16.98;;;;;;;;;;5022269;28;20219;-65
2022/05/06 05:10:21;;;;;;;21.08;16.35;;;;;;;;;;5013714;28;20997;-63
2022/05/06 05:12:47;;;;;;;19.40;16.10;;;;;;;;;;5014144;28;20207;-64
2022/05/06 05:15:13;;;;;;;27.27;17.48;;;;;;;;;;5014773;28;20208;-64
2022/05/06 05:17:38;;;;;;;23.88;16.77;;;;;;;;;;5021816;28;20207;-64
2022/05/06 05:20:04;;;;;;;21.10;17.17;;;;;;;;;;5021523;28;20693;-64
2022/05/06 05:22:31;;;;;;;18.75;16.40;;;;;;;;;;5022834;28;20363;-64
2022/05/06 05:24:56;;;;;;;18.27;15.50;;;;;;;;;;5040676;28;20561;-64
2022/05/06 05:27:22;;;;;;;19.50;16.05;;;;;;;;;;5021569;28;20219;-63
2022/05/06 05:29:47;;;;;;;19.08;15.07;;;;;;;;;;5022118;28;20208;-64
2022/05/06 05:32:12;;;;;;;18.48;15.73;;;;;;;;;;5037702;28;20254;-64
2022/05/06 05:34:40;;;;;;;19.08;15.77;;;;;;;;;;5036250;28;20215;-64
2022/05/06 05:37:05;;;;;;;19.60;15.57;;;;;;;;;;5049565;28;20347;-66
2022/05/06 05:39:31;;;;;;;20.27;14.70;;;;;;;;;;5052068;28;20283;-68
2022/05/06 05:41:56;;;;;;;17.02;13.95;;;;;;;;;;5051352;28;20230;-68
2022/05/06 05:49:49;;;;;;;16.88;13.63;;;;;;;;;;5051409;28;20751;-64
2022/05/06 05:52:14;;;;;;;17.05;14.75;;;;;;;;;;5050891;28;20207;-64
2022/05/06 05:54:39;;;;;;;18.67;14.77;;;;;;;;;;5051215;28;20211;-62
2022/05/06 05:57:05;;;;;;;17.50;14.57;;;;;;;;;;5048599;28;20264;-63
2022/05/06 05:59:30;;;;;;;16.58;13.60;;;;;;;;;;5051405;28;20260;-62
2022/05/06 06:01:55;;;;;;;18.23;14.27;;;;;;;;;;5050851;28;20564;-64
2022/05/06 06:04:21;;;;;;;17.60;14.38;;;;;;;;;;5051049;28;20341;-60
2022/05/06 06:06:46;;;;;;;17.67;14.15;;;;;;;;;;5051498;28;20207;-69
2022/05/06 06:09:12;;;;;;;20.92;15.38;;;;;;;;;;5050518;28;20238;-67
2022/05/06 06:11:37;;;;;;;20.15;15.05;;;;;;;;;;5029655;28;20211;-67
2022/05/06 06:14:03;;;;;;;19.40;15.25;;;;;;;;;;5031612;28;20216;-65
2022/05/06 06:16:28;;;;;;;21.38;16.08;;;;;;;;;;5035337;28;20242;-67
2022/05/06 06:18:54;;;;;;;20.65;16.05;;;;;;;;;;5051214;28;20210;-68
2022/05/06 06:21:20;;;;;;;20.65;15.10;;;;;;;;;;5050911;28;20709;-66
2022/05/06 06:23:45;;;;;;;25.15;16.45;;;;;;;;;;5043815;28;20238;-69
2022/05/06 06:26:10;;;;;;;19.92;15.73;;;;;;;;;;5050296;28;20212;-65
2022/05/06 06:28:36;;;;;;;18.48;15.55;;;;;;;;;;5054687;28;20203;-66
2022/05/06 06:31:01;;;;;;;19.02;15.65;;;;;;;;;;5053398;28;20735;-65
2022/05/06 06:33:26;;;;;;;20.77;16.02;;;;;;;;;;5053963;28;20214;-69
2022/05/06 06:35:52;;;;;;;18.38;14.70;;;;;;;;;;5054434;28;20203;-66
2022/05/06 06:38:17;;;;;;;22.38;15.43;;;;;;;;;;5053428;28;20207;-67
2022/05/06 06:40:42;;;;;;;21.48;15.57;;;;;;;;;;5054530;28;20742;-63
2022/05/06 06:43:08;;;;;;;18.20;15.38;;;;;;;;;;5054327;28;20211;-62
2022/05/06 06:45:34;;;;;;;18.50;15.05;;;;;;;;;;5054529;28;20231;-64
2022/05/06 06:47:59;;;;;;;18.10;13.30;;;;;;;;;;5054530;28;20241;-61
2022/05/06 06:50:25;;;;;;;17.50;12.00;;;;;;;;;;5054388;28;20298;-62
2022/05/06 06:52:50;;;;;;;17.13;14.43;;;;;;;;;;5054353;28;20568;-62
2022/05/06 06:55:16;;;;;;;18.05;13.90;;;;;;;;;;5041350;28;20223;-61
2022/05/06 06:57:42;;;;;;;17.58;13.48;;;;;;;;;;5048168;28;20238;-63
2022/05/06 07:00:08;;;;;;;18.13;12.93;;;;;;;;;;5053454;28;20690;-61
2022/05/06 07:02:33;;;;;;;16.05;13.93;;;;;;;;;;5038732;28;20275;-61
2022/05/06 07:05:00;;;;;;;15.57;13.68;;;;;;;;;;5034685;28;20796;-61
2022/05/06 07:12:52;;;;;;;15.05;12.63;;;;;;;;;;5034038;28;20628;-62
2022/05/06 07:15:18;;;;;;;15.98;13.65;;;;;;;;;;5033545;28;20671;-62
2022/05/06 07:17:43;;;;;;;16.98;14.50;;;;;;;;;;5034256;28;20215;-62
2022/05/06 07:20:10;;;;;;;17.83;14.35;;;;;;;;;;5033142;28;20231;-62
2022/05/06 07:22:35;;;;;;;16.17;13.38;;;;;;;;;;5033660;28;20223;-63
2022/05/06 07:25:01;;;;;;;19.83;15.27;;;;;;;;;;5032759;28;20417;-62
2022/05/06 07:27:26;;;;;;;18.13;15.27;;;;;;;;;;5033174;28;20291;-62
2022/05/06 07:29:51;;;;;;;19.37;16.17;;;;;;;;;;5033216;28;20414;-61
2022/05/06 07:32:18;;;;;;;17.95;14.18;;;;;;;;;;5033505;28;20454;-61
2022/05/06 07:34:43;;;;;;;19.35;15.43;;;;;;;;;;5033244;28;20247;-61
2022/05/06 07:37:08;;;;;;;20.42;15.65;;;;;;;;;;5032707;28;20308;-64
2022/05/06 07:39:34;;;;;;;21.95;16.63;;;;;;;;;;5033222;28;20204;-61
2022/05/06 07:42:00;;;;;;;26.80;17.40;;;;;;;;;;5032954;28;20643;-60
2022/05/06 07:44:26;;;;;;;27.02;19.08;;;;;;;;;;5037317;28;20662;-62
2022/05/06 07:46:51;;;;;;;26.10;20.77;;;;;;;;;;5015295;28;20422;-61
2022/05/06 07:49:16;;;;;;;26.88;19.52;;;;;;;;;;5032500;28;20678;-61
2022/05/06 07:51:43;;;;;;;26.33;19.65;;;;;;;;;;5033467;28;20208;-61
2022/05/06 07:54:08;;;;;;;26.92;20.00;;;;;;;;;;5032870;28;20217;-61
2022/05/06 07:56:33;;;;;;;26.20;19.58;;;;;;;;;;5031945;28;20203;-59
2022/05/06 07:58:58;;;;;;;26.48;20.02;;;;;;;;;;5033111;28;20219;-61
2022/05/06 08:06:51;;;;;;;20.75;15.98;;;;;;;;;;5013611;28;20621;-60
2022/05/06 08:09:17;;;;;;;22.67;18.35;;;;;;;;;;5012459;28;20212;-59
2022/05/06 08:11:42;;;;;;;20.25;17.40;;;;;;;;;;5012606;28;20280;-59
2022/05/06 08:14:07;;;;;;;19.02;15.75;;;;;;;;;;5012871;28;20216;-60
2022/05/06 08:16:33;;;;;;;17.35;14.50;;;;;;;;;;5012718;28;20664;-60
2022/05/06 08:18:58;;;;;;;17.13;14.40;;;;;;;;;;5012874;28;20216;-59
2022/05/06 08:21:23;;;;;;;16.60;13.88;;;;;;;;;;5012602;28;20216;-61
2022/05/06 08:23:48;;;;;;;15.82;13.50;;;;;;;;;;4995390;28;20216;-60
2022/05/06 08:26:14;;;;;;;15.55;12.60;;;;;;;;;;5011993;28;20208;-59
2022/05/06 08:28:39;;;;;;;15.77;13.35;;;;;;;;;;5012983;28;20691;-59
2022/05/06 08:31:04;;;;;;;13.82;11.30;;;;;;;;;;5012260;28;20212;-60
2022/05/06 08:33:29;;;;;;;14.75;10.48;;;;;;;;;;5012833;28;20216;-60
2022/05/06 08:35:55;;;;;;;14.88;11.30;;;;;;;;;;5013192;28;20215;-60
2022/05/06 08:38:21;;;;;;;12.35;9.93;;;;;;;;;;5011983;28;20218;-59
2022/05/06 08:40:47;;;;;;;9.98;7.88;;;;;;;;;;5011721;28;20304;-60
2022/05/06 08:43:13;;;;;;;10.32;7.60;;;;;;;;;;4996439;28;20278;-60
2022/05/06 08:51:06;;;;;;;8.98;7.40;;;;;;;;;;5011638;28;20254;-60
2022/05/06 08:53:32;;;;;;;9.13;6.75;;;;;;;;;;5032418;28;20216;-61
2022/05/06 08:55:58;;;;;;;10.68;7.40;;;;;;;;;;5014154;28;20220;-61
2022/05/06 08:58:24;;;;;;;8.55;7.00;;;;;;;;;;5031189;28;20212;-62
2022/05/06 09:00:50;;;;;;;10.32;7.72;;;;;;;;;;5025589;28;20690;-62
2022/05/06 09:03:15;;;;;;;12.23;10.57;;;;;;;;;;5031972;28;20266;-62
2022/05/06 09:05:48;;;;;;;13.85;10.50;;;;;;;;;;5031969;28;20208;-61
2022/05/06 09:08:13;;;;;;;11.38;8.13;;;;;;;;;;5031676;28;20212;-61
2022/05/06 09:10:38;;;;;;;10.38;8.77;;;;;;;;;;5032021;28;20649;-61
2022/05/06 09:13:03;;;;;;;13.00;8.93;;;;;;;;;;5013366;28;20250;-62
2022/05/06 09:18:17;;;;;;;10.27;7.85;;;;;;;;;;5031773;28;20222;-62
2022/05/06 09:20:42;;;;;;;13.07;10.23;;;;;;;;;;5031712;28;20625;-62
2022/05/06 09:23:18;;;;;;;12.27;9.40;;;;;;;;;;5031432;28;20216;-61
2022/05/06 09:25:46;;;;;;;6.95;4.30;;;;;;;;;;5031706;28;20208;-61
2022/05/06 09:28:24;;;;;;;5.82;3.95;;;;;;;;;;5030573;28;20206;-62
2022/05/06 09:31:02;;;;;;;8.88;6.55;;;;;;;;;;5032105;28;20307;-61
2022/05/06 09:33:29;;;;;;;9.75;7.43;;;;;;;;;;5013441;28;20211;-61
2022/05/06 09:35:56;;;;;;;5.53;3.58;;;;;;;;;;5031602;28;20689;-61
2022/05/06 09:38:21;;;;;;;4.70;3.55;;;;;;;;;;5031338;28;20655;-61
2022/05/06 09:40:46;;;;;;;4.50;2.58;;;;;;;;;;5031053;28;20226;-61
2022/05/06 09:43:15;;;;;;;5.05;2.88;;;;;;;;;;5029440;28;20596;-61
2022/05/06 09:45:43;;;;;;;3.50;2.53;;;;;;;;;;5033844;28;20242;-61
2022/05/06 09:48:09;;;;;;;4.20;2.63;;;;;;;;;;5028916;28;20667;-61
2022/05/06 09:50:36;;;;;;;3.83;2.63;;;;;;;;;;5029827;28;20218;-61
2022/05/06 09:53:01;;;;;;;3.53;1.80;;;;;;;;;;5029595;28;20246;-61
2022/05/06 09:55:28;;;;;;;3.42;1.95;;;;;;;;;;5042164;28;20250;-61
2022/05/06 09:57:54;;;;;;;4.25;1.80;;;;;;;;;;5026897;28;20623;-60
2022/05/06 10:00:19;;;;;;;2.13;1.58;;;;;;;;;;5023026;28;20255;-61
2022/05/06 10:02:44;;;;;;;2.38;1.50;;;;;;;;;;5050607;28;20291;-61
2022/05/06 10:05:10;;;;;;;2.63;1.73;;;;;;;;;;5053023;28;20294;-61
2022/05/06 10:07:35;;;;;;;2.13;1.50;;;;;;;;;;5053483;28;20211;-61
2022/05/06 10:10:05;;;;;;;3.00;1.70;;;;;;;;;;5034560;28;20221;-62
2022/05/06 10:12:30;;;;;;;3.97;2.13;;;;;;;;;;5053359;28;20218;-61
2022/05/06 10:14:56;;;;;;;3.58;2.00;;;;;;;;;;5035655;28;20219;-61
2022/05/06 10:17:50;;;;;;;4.57;2.20;;;;;;;;;;5034547;28;20297;-61
2022/05/06 10:20:34;;;;;;;4.18;2.30;;;;;;;;;;5052686;28;20231;-61
2022/05/06 10:22:59;;;;;;;3.90;1.70;;;;;;;;;;5052896;28;20256;-61
2022/05/06 10:25:40;;;;;;;11.52;8.15;;;;;;;;;;5052377;28;20207;-62
2022/05/06 10:34:08;;;;;;;8.15;3.53;;;;;;;;;;5052757;28;20264;-61
2022/05/06 10:36:41;;;;;;;5.32;4.05;;;;;;;;;;5052497;28;20276;-61
2022/05/06 10:39:20;;;;;;;6.40;5.60;;;;;;;;;;5052028;28;20585;-61
2022/05/06 10:41:59;;;;;;;9.45;7.53;;;;;;;;;;5053042;28;20784;-61
2022/05/06 10:44:32;;;;;;;7.07;4.60;;;;;;;;;;5037972;28;20230;-61
2022/05/06 10:46:58;;;;;;;8.63;5.55;;;;;;;;;;5032726;28;20218;-60
2022/05/06 10:49:46;;;;;;;7.30;5.35;;;;;;;;;;5032414;28;20208;-60
2022/05/06 10:52:15;;;;;;;7.38;5.32;;;;;;;;;;5031835;28;20286;-60
2022/05/06 10:54:42;;;;;;;6.85;5.15;;;;;;;;;;5032387;28;20228;-61
2022/05/06 10:57:07;;;;;;;8.75;6.63;;;;;;;;;;5041262;28;20203;-61
2022/05/06 10:59:48;;;;;;;10.23;5.45;;;;;;;;;;5051410;28;20618;-61
2022/05/06 11:02:14;;;;;;;8.23;6.03;;;;;;;;;;5038944;28;20223;-61
2022/05/06 11:04:40;;;;;;;7.95;6.50;;;;;;;;;;5032427;28;20204;-61
2022/05/06 11:07:12;;;;;;;8.23;5.75;;;;;;;;;;5014506;28;20702;-61
2022/05/06 11:09:38;;;;;;;8.23;6.32;;;;;;;;;;5032122;28;20274;-61
2022/05/06 11:12:03;;;;;;;6.63;5.28;;;;;;;;;;5030901;28;20219;-61
2022/05/06 11:14:29;;;;;;;10.02;7.00;;;;;;;;;;5031942;28;20208;-61
2022/05/06 11:17:12;;;;;;;6.68;5.75;;;;;;;;;;5032534;28;20216;-61
2022/05/06 11:19:37;;;;;;;6.72;5.38;;;;;;;;;;5013651;28;20575;-61
2022/05/06 11:22:06;;;;;;;6.53;5.57;;;;;;;;;;5031707;28;20678;-62
2022/05/06 11:24:32;;;;;;;8.32;6.03;;;;;;;;;;5031950;28;20243;-61
2022/05/06 11:27:11;;;;;;;8.52;6.03;;;;;;;;;;5031644;28;20253;-61
2022/05/06 11:29:49;;;;;;;8.32;5.43;;;;;;;;;;5011337;28;20212;-61
2022/05/06 11:32:15;;;;;;;8.27;5.88;;;;;;;;;;5012014;28;20263;-61
2022/05/06 11:34:45;;;;;;;6.78;5.78;;;;;;;;;;5011478;28;20204;-60
2022/05/06 11:37:14;;;;;;;7.40;5.40;;;;;;;;;;5011883;28;20701;-61
2022/05/06 11:39:39;;;;;;;6.50;5.75;;;;;;;;;;5011458;28;20672;-61
2022/05/06 11:42:18;;;;;;;7.40;5.85;;;;;;;;;;5011830;28;20251;-61
2022/05/06 11:47:36;;;;;;;8.57;5.53;;;;;;;;;;5050476;28;20294;-61
2022/05/06 11:50:01;;;;;;;7.95;5.43;;;;;;;;;;5050810;28;20218;-61
2022/05/06 11:52:27;;;;;;;6.05;4.88;;;;;;;;;;5051666;28;20214;-61
2022/05/06 11:54:52;;;;;;;6.30;4.15;;;;;;;;;;5050901;28;20227;-61
2022/05/06 11:57:17;;;;;;;5.55;4.65;;;;;;;;;;5040418;28;20717;-60
2022/05/06 11:59:43;;;;;;;6.03;5.22;;;;;;;;;;5017272;28;20223;-61
2022/05/06 12:02:09;;;;;;;7.30;5.72;;;;;;;;;;5022967;28;20667;-61
2022/05/06 12:04:35;;;;;;;11.88;5.82;;;;;;;;;;5031463;28;20215;-61
2022/05/06 12:07:00;;;;;;;7.53;6.00;;;;;;;;;;5031567;28;20219;-61
2022/05/06 12:09:25;;;;;;;6.47;4.88;;;;;;;;;;5031281;28;20353;-61
2022/05/06 12:12:02;;;;;;;6.38;4.97;;;;;;;;;;5032170;28;20207;-61
2022/05/06 12:14:27;;;;;;;7.03;5.35;;;;;;;;;;5033175;28;20266;-60
2022/05/06 12:16:53;;;;;;;9.13;5.30;;;;;;;;;;5032160;28;20629;-61
2022/05/06 12:19:19;;;;;;;7.28;5.07;;;;;;;;;;5032960;28;20216;-61
2022/05/06 12:21:44;;;;;;;7.45;5.20;;;;;;;;;;5033043;28;20216;-61
2022/05/06 12:24:09;;;;;;;8.77;4.65;;;;;;;;;;5031401;28;20551;-61
2022/05/06 12:26:35;;;;;;;6.22;4.32;;;;;;;;;;5033165;28;20298;-61
2022/05/06 12:29:01;;;;;;;6.38;4.13;;;;;;;;;;5032467;28;20305;-62
2022/05/06 12:31:28;;;;;;;8.00;4.20;;;;;;;;;;5032591;28;20215;-61
2022/05/06 12:33:59;;;;;;;5.53;4.20;;;;;;;;;;5033049;28;20617;-61
2022/05/06 12:36:24;;;;;;;5.30;3.90;;;;;;;;;;5032021;28;20211;-61
2022/05/06 12:38:51;;;;;;;6.40;3.95;;;;;;;;;;5032796;28;20697;-61
2022/05/06 12:41:19;;;;;;;3.97;3.33;;;;;;;;;;5032345;28;20282;-61
2022/05/06 12:43:44;;;;;;;4.95;3.35;;;;;;;;;;5024516;28;20236;-61
2022/05/06 12:46:10;;;;;;;5.35;4.32;;;;;;;;;;5010917;28;20248;-61
2022/05/06 12:51:19;;;;;;;6.50;4.10;;;;;;;;;;5012388;28;20726;-61
2022/05/06 12:53:44;;;;;;;5.22;4.50;;;;;;;;;;5013068;28;20204;-61
2022/05/06 12:56:16;;;;;;;6.78;3.72;;;;;;;;;;5031656;28;20231;-62
2022/05/06 12:58:41;;;;;;;4.75;3.33;;;;;;;;;;5051679;28;20230;-61
2022/05/06 13:01:06;;;;;;;5.07;2.97;;;;;;;;;;5047576;28;20699;-61
2022/05/06 13:03:32;;;;;;;4.10;2.95;;;;;;;;;;5032610;28;20261;-61
2022/05/06 13:05:57;;;;;;;3.70;2.67;;;;;;;;;;5031809;28;20637;-61
2022/05/06 13:08:24;;;;;;;4.50;2.90;;;;;;;;;;5031931;28;20207;-61
2022/05/06 13:10:50;;;;;;;6.53;3.58;;;;;;;;;;5032295;28;20291;-61
2022/05/06 13:13:15;;;;;;;3.83;2.72;;;;;;;;;;5031100;28;20298;-61
2022/05/06 13:15:41;;;;;;;5.88;3.30;;;;;;;;;;5032713;28;20600;-61
2022/05/06 13:18:06;;;;;;;4.35;2.72;;;;;;;;;;5029685;28;20307;-62
2022/05/06 13:20:31;;;;;;;5.72;3.90;;;;;;;;;;5032186;28;20219;-61
2022/05/06 13:22:56;;;;;;;4.57;3.42;;;;;;;;;;5032084;28;20207;-61
2022/05/06 13:25:22;;;;;;;5.82;3.40;;;;;;;;;;5031629;28;20220;-61
2022/05/06 13:27:47;;;;;;;6.10;3.50;;;;;;;;;;5031911;28;20215;-61
2022/05/06 13:30:13;;;;;;;3.63;2.60;;;;;;;;;;5031836;28;20216;-61
2022/05/06 13:32:38;;;;;;;6.93;4.07;;;;;;;;;;5031209;28;20212;-61
2022/05/06 13:35:03;;;;;;;4.05;3.10;;;;;;;;;;5033920;28;20211;-61
2022/05/06 13:37:29;;;;;;;4.38;3.20;;;;;;;;;;5036174;28;20593;-61
2022/05/06 13:39:54;;;;;;;5.32;3.20;;;;;;;;;;5035582;28;20583;-61
2022/05/06 13:42:19;;;;;;;5.68;4.28;;;;;;;;;;5036122;28;21182;-61
2022/05/06 13:44:46;;;;;;;5.68;3.67;;;;;;;;;;5033578;28;20295;-61
2022/05/06 13:47:12;;;;;;;5.65;3.70;;;;;;;;;;5015162;28;20216;-61
2022/05/06 13:49:37;;;;;;;5.22;3.40;;;;;;;;;;5016287;28;20282;-61
2022/05/06 13:52:02;;;;;;;6.18;3.88;;;;;;;;;;5015995;28;20219;-61
2022/05/06 13:54:28;;;;;;;5.07;3.25;;;;;;;;;;5020264;28;20259;-61
2022/05/06 13:59:38;;;;;;;9.25;4.30;;;;;;;;;;5041931;28;20235;-61
2022/05/06 14:02:03;;;;;;;5.60;3.83;;;;;;;;;;5023616;28;20220;-61
2022/05/06 14:04:28;;;;;;;6.85;4.72;;;;;;;;;;5015602;28;20315;-61
2022/05/06 14:06:54;;;;;;;8.52;5.10;;;;;;;;;;5015948;28;20205;-61
2022/05/06 14:09:19;;;;;;;6.53;5.05;;;;;;;;;;5024517;28;20204;-61
2022/05/06 14:11:44;;;;;;;6.22;3.70;;;;;;;;;;5041127;28;20243;-61
2022/05/06 14:14:09;;;;;;;7.30;4.35;;;;;;;;;;5034982;28;20262;-61
2022/05/06 14:16:35;;;;;;;7.82;5.38;;;;;;;;;;5034905;28;20208;-61
2022/05/06 14:19:00;;;;;;;8.25;4.50;;;;;;;;;;5035024;28;20681;-61
2022/05/06 14:21:26;;;;;;;7.03;5.10;;;;;;;;;;5034498;28;20230;-61
2022/05/06 14:23:51;;;;;;;20.70;6.85;;;;;;;;;;5035007;28;20207;-61
2022/05/06 14:26:16;;;;;;;8.65;6.22;;;;;;;;;;5034957;28;20306;-61
2022/05/06 14:28:42;;;;;;;7.75;5.75;;;;;;;;;;5034608;28;20546;-61
2022/05/06 14:31:07;;;;;;;10.68;6.15;;;;;;;;;;5034173;28;20220;-62
2022/05/06 14:33:32;;;;;;;11.05;6.10;;;;;;;;;;5034903;28;20295;-61
2022/05/06 14:35:58;;;;;;;8.05;6.25;;;;;;;;;;5035004;28;20298;-61
2022/05/06 14:38:23;;;;;;;7.82;5.60;;;;;;;;;;5034062;28;20234;-61
2022/05/06 14:40:49;;;;;;;7.72;6.25;;;;;;;;;;5035069;28;20223;-61
2022/05/06 14:43:14;;;;;;;10.00;7.00;;;;;;;;;;5029277;28;20670;-61
2022/05/06 14:45:40;;;;;;;11.00;6.97;;;;;;;;;;5034129;28;20287;-61
2022/05/06 14:48:05;;;;;;;9.10;6.43;;;;;;;;;;5034482;28;20208;-61
2022/05/06 14:50:30;;;;;;;12.32;6.15;;;;;;;;;;5034143;28;20572;-61
2022/05/06 14:52:56;;;;;;;10.18;6.60;;;;;;;;;;5034420;28;20662;-61
2022/05/06 14:55:22;;;;;;;10.15;6.32;;;;;;;;;;5046538;28;20234;-61
2022/05/06 14:57:47;;;;;;;10.10;7.13;;;;;;;;;;5022441;28;20703;-61
2022/05/06 15:00:13;;;;;;;11.32;6.75;;;;;;;;;;5014511;28;20331;-63
2022/05/06 15:02:38;;;;;;;12.13;8.45;;;;;;;;;;5028952;28;20236;-62
2022/05/06 15:05:04;;;;;;;13.30;8.00;;;;;;;;;;5012077;28;20781;-61
2022/05/06 15:07:29;;;;;;;10.63;7.85;;;;;;;;;;5021031;28;20858;-61
2022/05/06 15:09:55;;;;;;;12.43;7.93;;;;;;;;;;5020401;28;20250;-62